sensor_id;sensor_type;location;lat;lon;timestamp;pressure;altitude;pressure_sealevel;temperature;humidity
35892;BME280;21993;42.672;23.296;2023-04-02T00:07:43;93820.53;;;11.30;53.89
35892;BME280;21993;42.672;23.296;2023-04-02T00:10:29;93825.94;;;11.28;53.73
35892;BME280;21993;42.672;23.296;2023-04-02T00:13:22;93816.06;;;11.14;53.91
35892;BME280;21993;42.672;23.296;2023-04-02T00:15:52;93828.00;;;11.09;53.76
35892;BME280;21993;42.672;23.296;2023-04-02T00:18:21;93808.50;;;11.11;53.52
35892;BME280;21993;42.672;23.296;2023-04-02T00:20:51;93821.94;;;11.08;53.19
35892;BME280;21993;42.672;23.296;2023-04-02T00:23:17;93826.38;;;11.08;53.62
35892;BME280;21993;42.672;23.296;2023-04-02T00:25:44;93830.69;;;11.25;53.20
35892;BME280;21993;42.672;23.296;2023-04-02T00:28:19;93823.63;;;11.25;53.22
35892;BME280;21993;42.672;23.296;2023-04-02T00:30:57;93812.28;;;11.17;53.85
35892;BME280;21993;42.672;23.296;2023-04-02T00:33:26;93808.53;;;11.19;53.39
35892;BME280;21993;42.672;23.296;2023-04-02T00:35:53;93825.69;;;10.97;53.53
35892;BME280;21993;42.672;23.296;2023-04-02T00:38:27;93810.72;;;10.82;53.88
35892;BME280;21993;42.672;23.296;2023-04-02T00:40:56;93805.03;;;10.94;53.61
35892;BME280;21993;42.672;23.296;2023-04-02T00:43:25;93816.34;;;10.95;53.15
35892;BME280;21993;42.672;23.296;2023-04-02T00:45:58;93808.50;;;11.03;52.92
35892;BME280;21993;42.672;23.296;2023-04-02T00:51:10;93798.09;;;10.85;53.19
35892;BME280;21993;42.672;23.296;2023-04-02T00:53:38;93810.75;;;10.98;52.75
35892;BME280;21993;42.672;23.296;2023-04-02T00:56:13;93815.81;;;10.91;52.66
35892;BME280;21993;42.672;23.296;2023-04-02T00:58:42;93821.78;;;11.02;52.98
35892;BME280;21993;42.672;23.296;2023-04-02T01:01:19;93806.88;;;11.26;52.31
35892;BME280;21993;42.672;23.296;2023-04-02T01:04:00;93809.03;;;11.31;52.14
35892;BME280;21993;42.672;23.296;2023-04-02T01:06:36;93814.63;;;11.36;52.67
35892;BME280;21993;42.672;23.296;2023-04-02T01:14:43;93800.16;;;11.32;52.30
35892;BME280;21993;42.672;23.296;2023-04-02T01:25:06;93813.09;;;11.17;52.48
35892;BME280;21993;42.672;23.296;2023-04-02T01:30:35;93807.53;;;11.12;52.29
35892;BME280;21993;42.672;23.296;2023-04-02T01:33:01;93806.03;;;11.18;51.93
35892;BME280;21993;42.672;23.296;2023-04-02T01:35:30;93817.88;;;11.22;51.52
35892;BME280;21993;42.672;23.296;2023-04-02T01:38:12;93820.81;;;11.11;51.74
35892;BME280;21993;42.672;23.296;2023-04-02T01:40:51;93825.25;;;11.10;51.99
35892;BME280;21993;42.672;23.296;2023-04-02T01:45:50;93825.09;;;11.20;51.78
35892;BME280;21993;42.672;23.296;2023-04-02T01:48:17;93811.47;;;11.33;51.42
35892;BME280;21993;42.672;23.296;2023-04-02T01:50:47;93808.22;;;11.39;51.01
35892;BME280;21993;42.672;23.296;2023-04-02T01:53:15;93810.50;;;11.34;51.42
35892;BME280;21993;42.672;23.296;2023-04-02T01:55:53;93816.56;;;11.34;51.52
35892;BME280;21993;42.672;23.296;2023-04-02T01:58:26;93810.50;;;11.42;51.38
35892;BME280;21993;42.672;23.296;2023-04-02T02:00:58;93803.28;;;11.36;50.95
35892;BME280;21993;42.672;23.296;2023-04-02T02:03:25;93805.91;;;11.27;51.46
35892;BME280;21993;42.672;23.296;2023-04-02T02:05:51;93803.28;;;11.27;51.37
35892;BME280;21993;42.672;23.296;2023-04-02T02:08:48;93796.72;;;11.40;51.29
35892;BME280;21993;42.672;23.296;2023-04-02T02:11:19;93810.84;;;11.47;51.03
35892;BME280;21993;42.672;23.296;2023-04-02T02:16:22;93820.19;;;11.41;52.68
35892;BME280;21993;42.672;23.296;2023-04-02T02:18:50;93809.19;;;11.38;53.33
35892;BME280;21993;42.672;23.296;2023-04-02T02:23:57;93827.19;;;11.08;55.85
35892;BME280;21993;42.672;23.296;2023-04-02T02:26:25;93824.97;;;10.79;56.75
35892;BME280;21993;42.672;23.296;2023-04-02T02:28:54;93837.75;;;10.74;56.77
35892;BME280;21993;42.672;23.296;2023-04-02T02:31:27;93828.38;;;10.63;57.33
35892;BME280;21993;42.672;23.296;2023-04-02T02:33:57;93833.44;;;10.65;57.38
35892;BME280;21993;42.672;23.296;2023-04-02T02:36:27;93823.44;;;10.60;57.21
35892;BME280;21993;42.672;23.296;2023-04-02T02:39:07;93818.97;;;10.53;57.64
35892;BME280;21993;42.672;23.296;2023-04-02T02:41:47;93822.59;;;10.52;57.23
35892;BME280;21993;42.672;23.296;2023-04-02T02:44:32;93807.13;;;10.49;56.87
35892;BME280;21993;42.672;23.296;2023-04-02T02:47:07;93815.34;;;10.46;56.21
35892;BME280;21993;42.672;23.296;2023-04-02T02:49:38;93815.53;;;10.52;55.12
35892;BME280;21993;42.672;23.296;2023-04-02T02:52:16;93805.84;;;10.53;54.62
35892;BME280;21993;42.672;23.296;2023-04-02T02:54:46;93814.75;;;10.60;54.24
35892;BME280;21993;42.672;23.296;2023-04-02T02:57:25;93817.88;;;10.63;54.25
35892;BME280;21993;42.672;23.296;2023-04-02T02:59:54;93819.22;;;10.76;53.90
35892;BME280;21993;42.672;23.296;2023-04-02T03:02:22;93805.78;;;10.79;53.77
35892;BME280;21993;42.672;23.296;2023-04-02T03:04:50;93824.66;;;10.82;53.36
35892;BME280;21993;42.672;23.296;2023-04-02T03:07:18;93811.53;;;10.82;53.33
35892;BME280;21993;42.672;23.296;2023-04-02T03:13:16;93820.72;;;10.78;53.22
35892;BME280;21993;42.672;23.296;2023-04-02T03:18:42;93818.16;;;10.94;53.13
35892;BME280;21993;42.672;23.296;2023-04-02T03:27:17;93824.38;;;10.93;52.95
35892;BME280;21993;42.672;23.296;2023-04-02T03:29:51;93830.09;;;10.89;52.43
35892;BME280;21993;42.672;23.296;2023-04-02T03:32:22;93839.19;;;11.03;52.33
35892;BME280;21993;42.672;23.296;2023-04-02T03:34:57;93822.59;;;11.02;52.06
35892;BME280;21993;42.672;23.296;2023-04-02T03:37:34;93839.34;;;11.09;52.12
35892;BME280;21993;42.672;23.296;2023-04-02T03:40:22;93838.88;;;11.14;51.60
35892;BME280;21993;42.672;23.296;2023-04-02T03:43:05;93830.31;;;11.04;52.38
35892;BME280;21993;42.672;23.296;2023-04-02T03:45:40;93836.53;;;10.94;52.02
35892;BME280;21993;42.672;23.296;2023-04-02T03:48:55;93838.81;;;10.97;52.08
35892;BME280;21993;42.672;23.296;2023-04-02T03:51:05;93835.41;;;11.05;52.26
35892;BME280;21993;42.672;23.296;2023-04-02T03:53:34;93831.97;;;11.05;51.92
35892;BME280;21993;42.672;23.296;2023-04-02T03:56:00;93834.28;;;11.16;51.87
35892;BME280;21993;42.672;23.296;2023-04-02T03:58:44;93830.00;;;11.15;51.94
35892;BME280;21993;42.672;23.296;2023-04-02T04:03:44;93831.38;;;11.27;51.70
35892;BME280;21993;42.672;23.296;2023-04-02T04:06:24;93837.91;;;11.31;51.44
35892;BME280;21993;42.672;23.296;2023-04-02T04:08:58;93837.91;;;11.31;51.98
35892;BME280;21993;42.672;23.296;2023-04-02T04:11:33;93846.50;;;10.91;56.35
35892;BME280;21993;42.672;23.296;2023-04-02T04:14:06;93845.66;;;10.82;56.97
35892;BME280;21993;42.672;23.296;2023-04-02T04:19:39;93854.63;;;10.11;59.25
35892;BME280;21993;42.672;23.296;2023-04-02T04:22:24;93859.50;;;10.06;60.18
35892;BME280;21993;42.672;23.296;2023-04-02T04:25:03;93868.59;;;9.94;60.45
35892;BME280;21993;42.672;23.296;2023-04-02T04:27:44;93871.66;;;9.90;60.89
35892;BME280;21993;42.672;23.296;2023-04-02T04:30:20;93858.66;;;9.80;60.89
35892;BME280;21993;42.672;23.296;2023-04-02T04:32:57;93869.53;;;9.67;61.18
35892;BME280;21993;42.672;23.296;2023-04-02T04:35:38;93876.03;;;9.63;61.60
35892;BME280;21993;42.672;23.296;2023-04-02T04:38:15;93879.72;;;9.52;61.71
35892;BME280;21993;42.672;23.296;2023-04-02T04:40:45;93881.44;;;9.44;62.03
35892;BME280;21993;42.672;23.296;2023-04-02T04:43:26;93881.94;;;9.47;62.54
35892;BME280;21993;42.672;23.296;2023-04-02T04:46:07;93892.06;;;9.42;62.53
35892;BME280;21993;42.672;23.296;2023-04-02T04:48:38;93889.06;;;9.37;62.25
35892;BME280;21993;42.672;23.296;2023-04-02T04:51:26;93888.75;;;9.40;62.04
35892;BME280;21993;42.672;23.296;2023-04-02T04:53:54;93887.56;;;9.35;62.10
35892;BME280;21993;42.672;23.296;2023-04-02T04:56:25;93888.06;;;9.38;61.81
35892;BME280;21993;42.672;23.296;2023-04-02T04:58:57;93899.28;;;9.30;62.43
35892;BME280;21993;42.672;23.296;2023-04-02T05:01:36;93897.97;;;9.44;62.39
35892;BME280;21993;42.672;23.296;2023-04-02T05:04:14;93893.25;;;9.48;61.82
35892;BME280;21993;42.672;23.296;2023-04-02T05:06:44;93890.03;;;9.36;63.00
35892;BME280;21993;42.672;23.296;2023-04-02T05:12:16;93893.31;;;9.38;63.23
35892;BME280;21993;42.672;23.296;2023-04-02T05:14:48;93888.63;;;9.59;62.38
35892;BME280;21993;42.672;23.296;2023-04-02T05:17:20;93890.78;;;9.64;61.77
35892;BME280;21993;42.672;23.296;2023-04-02T05:19:51;93893.97;;;9.58;62.04
35892;BME280;21993;42.672;23.296;2023-04-02T05:27:32;93893.28;;;9.92;61.35
35892;BME280;21993;42.672;23.296;2023-04-02T05:32:47;93904.50;;;10.20;60.62
35892;BME280;21993;42.672;23.296;2023-04-02T05:35:18;93915.09;;;10.28;60.27
35892;BME280;21993;42.672;23.296;2023-04-02T05:37:45;93911.63;;;10.27;60.19
35892;BME280;21993;42.672;23.296;2023-04-02T05:40:14;93911.22;;;10.40;59.60
35892;BME280;21993;42.672;23.296;2023-04-02T05:42:48;93925.47;;;10.63;59.32
35892;BME280;21993;42.672;23.296;2023-04-02T05:45:22;93911.72;;;10.69;58.89
35892;BME280;21993;42.672;23.296;2023-04-02T05:47:52;93913.53;;;10.69;58.77
35892;BME280;21993;42.672;23.296;2023-04-02T05:50:46;93915.53;;;10.75;58.78
35892;BME280;21993;42.672;23.296;2023-04-02T05:58:25;93917.19;;;11.10;57.98
35892;BME280;21993;42.672;23.296;2023-04-02T06:00:58;93912.75;;;11.11;57.69
35892;BME280;21993;42.672;23.296;2023-04-02T06:06:01;93920.53;;;11.28;57.52
35892;BME280;21993;42.672;23.296;2023-04-02T06:08:41;93920.22;;;11.40;57.18
35892;BME280;21993;42.672;23.296;2023-04-02T06:11:18;93922.56;;;11.59;56.23
35892;BME280;21993;42.672;23.296;2023-04-02T06:13:46;93915.09;;;11.89;54.83
35892;BME280;21993;42.672;23.296;2023-04-02T06:16:14;93923.63;;;11.91;53.91
35892;BME280;21993;42.672;23.296;2023-04-02T06:18:41;93919.19;;;11.99;54.01
35892;BME280;21993;42.672;23.296;2023-04-02T06:21:11;93928.06;;;11.90;54.29
35892;BME280;21993;42.672;23.296;2023-04-02T06:23:50;93909.19;;;12.11;54.43
35892;BME280;21993;42.672;23.296;2023-04-02T06:26:40;93918.56;;;12.30;52.98
35892;BME280;21993;42.672;23.296;2023-04-02T06:29:15;93919.84;;;12.34;53.55
35892;BME280;21993;42.672;23.296;2023-04-02T06:31:49;93919.97;;;12.73;52.56
35892;BME280;21993;42.672;23.296;2023-04-02T06:34:26;93919.44;;;12.78;53.20
35892;BME280;21993;42.672;23.296;2023-04-02T06:36:58;93925.59;;;12.70;55.02
35892;BME280;21993;42.672;23.296;2023-04-02T06:39:25;93915.09;;;13.01;52.36
35892;BME280;21993;42.672;23.296;2023-04-02T06:42:05;93920.31;;;13.17;51.96
35892;BME280;21993;42.672;23.296;2023-04-02T06:44:34;93915.91;;;13.10;52.09
35892;BME280;21993;42.672;23.296;2023-04-02T06:49:49;93923.63;;;13.19;52.08
35892;BME280;21993;42.672;23.296;2023-04-02T06:52:24;93916.34;;;13.30;51.68
35892;BME280;21993;42.672;23.296;2023-04-02T06:54:51;93923.59;;;13.28;52.18
35892;BME280;21993;42.672;23.296;2023-04-02T06:57:16;93929.97;;;13.41;51.39
35892;BME280;21993;42.672;23.296;2023-04-02T06:59:42;93935.84;;;13.51;51.27
35892;BME280;21993;42.672;23.296;2023-04-02T07:04:41;93935.75;;;13.68;51.48
35892;BME280;21993;42.672;23.296;2023-04-02T07:07:07;93943.00;;;13.74;50.53
35892;BME280;21993;42.672;23.296;2023-04-02T07:09:32;93938.78;;;13.88;50.79
35892;BME280;21993;42.672;23.296;2023-04-02T07:11:58;93929.94;;;14.03;50.18
35892;BME280;21993;42.672;23.296;2023-04-02T07:14:23;93940.19;;;13.98;50.47
35892;BME280;21993;42.672;23.296;2023-04-02T07:16:49;93939.03;;;14.01;50.07
35892;BME280;21993;42.672;23.296;2023-04-02T07:19:20;93938.78;;;14.11;50.23
35892;BME280;21993;42.672;23.296;2023-04-02T07:21:46;93947.28;;;14.21;50.62
35892;BME280;21993;42.672;23.296;2023-04-02T07:24:12;93947.97;;;14.37;49.40
35892;BME280;21993;42.672;23.296;2023-04-02T07:26:37;93949.91;;;14.44;48.81
35892;BME280;21993;42.672;23.296;2023-04-02T07:29:08;93943.16;;;14.49;48.39
35892;BME280;21993;42.672;23.296;2023-04-02T07:31:33;93949.66;;;14.39;48.53
35892;BME280;21993;42.672;23.296;2023-04-02T07:33:59;93949.47;;;14.40;48.72
35892;BME280;21993;42.672;23.296;2023-04-02T07:36:27;93945.53;;;14.59;47.45
35892;BME280;21993;42.672;23.296;2023-04-02T07:38:53;93949.28;;;14.79;45.88
35892;BME280;21993;42.672;23.296;2023-04-02T07:41:19;93949.50;;;14.92;45.19
35892;BME280;21993;42.672;23.296;2023-04-02T07:43:45;93948.59;;;15.00;44.61
35892;BME280;21993;42.672;23.296;2023-04-02T07:46:11;93940.75;;;15.21;44.07
35892;BME280;21993;42.672;23.296;2023-04-02T07:48:39;93946.81;;;15.30;43.54
35892;BME280;21993;42.672;23.296;2023-04-02T07:51:11;93943.31;;;15.30;44.41
35892;BME280;21993;42.672;23.296;2023-04-02T07:53:38;93939.22;;;15.42;43.67
35892;BME280;21993;42.672;23.296;2023-04-02T07:56:06;93942.28;;;15.45;44.16
35892;BME280;21993;42.672;23.296;2023-04-02T07:58:32;93949.72;;;15.65;43.04
35892;BME280;21993;42.672;23.296;2023-04-02T08:01:00;93936.66;;;15.63;43.80
35892;BME280;21993;42.672;23.296;2023-04-02T08:03:28;93941.91;;;15.78;43.26
35892;BME280;21993;42.672;23.296;2023-04-02T08:05:57;93938.44;;;15.77;43.04
35892;BME280;21993;42.672;23.296;2023-04-02T08:08:23;93948.31;;;15.84;42.07
35892;BME280;21993;42.672;23.296;2023-04-02T08:10:49;93955.16;;;15.78;42.69
35892;BME280;21993;42.672;23.296;2023-04-02T08:13:16;93950.34;;;15.67;43.56
35892;BME280;21993;42.672;23.296;2023-04-02T08:15:42;93960.34;;;15.86;42.39
35892;BME280;21993;42.672;23.296;2023-04-02T08:18:08;93959.97;;;15.89;42.26
35892;BME280;21993;42.672;23.296;2023-04-02T08:20:33;93959.13;;;15.89;42.23
35892;BME280;21993;42.672;23.296;2023-04-02T08:22:59;93954.00;;;16.02;42.08
35892;BME280;21993;42.672;23.296;2023-04-02T08:25:25;93965.78;;;15.99;41.91
35892;BME280;21993;42.672;23.296;2023-04-02T08:27:51;93961.66;;;15.97;42.65
35892;BME280;21993;42.672;23.296;2023-04-02T08:30:17;93960.38;;;16.08;42.33
35892;BME280;21993;42.672;23.296;2023-04-02T08:32:43;93957.16;;;16.12;42.51
35892;BME280;21993;42.672;23.296;2023-04-02T08:35:10;93961.16;;;16.23;42.43
35892;BME280;21993;42.672;23.296;2023-04-02T08:37:36;93959.00;;;16.33;41.16
35892;BME280;21993;42.672;23.296;2023-04-02T08:40:02;93968.06;;;16.45;41.23
35892;BME280;21993;42.672;23.296;2023-04-02T08:42:40;93968.84;;;16.60;41.54
35892;BME280;21993;42.672;23.296;2023-04-02T08:45:17;93960.50;;;16.85;40.83
35892;BME280;21993;42.672;23.296;2023-04-02T08:47:43;93952.47;;;17.00;40.28
35892;BME280;21993;42.672;23.296;2023-04-02T08:50:27;93968.97;;;17.30;39.82
35892;BME280;21993;42.672;23.296;2023-04-02T08:52:54;93955.09;;;17.28;39.48
35892;BME280;21993;42.672;23.296;2023-04-02T08:58:27;93964.06;;;17.27;39.31
35892;BME280;21993;42.672;23.296;2023-04-02T09:00:59;93967.69;;;17.19;39.51
35892;BME280;21993;42.672;23.296;2023-04-02T09:03:34;93956.81;;;17.14;39.83
35892;BME280;21993;42.672;23.296;2023-04-02T09:06:01;93965.44;;;17.23;39.07
35892;BME280;21993;42.672;23.296;2023-04-02T09:08:29;93966.50;;;17.28;38.11
35892;BME280;21993;42.672;23.296;2023-04-02T09:13:41;93952.88;;;17.38;38.14
35892;BME280;21993;42.672;23.296;2023-04-02T09:16:12;93958.09;;;17.53;37.48
35892;BME280;21993;42.672;23.296;2023-04-02T09:18:39;93953.59;;;17.53;36.85
35892;BME280;21993;42.672;23.296;2023-04-02T09:23:45;93955.06;;;17.62;37.86
35892;BME280;21993;42.672;23.296;2023-04-02T09:26:31;93954.38;;;17.88;36.48
35892;BME280;21993;42.672;23.296;2023-04-02T09:29:22;93950.94;;;17.94;36.79
35892;BME280;21993;42.672;23.296;2023-04-02T09:31:51;93942.94;;;17.88;36.20
35892;BME280;21993;42.672;23.296;2023-04-02T09:34:34;93950.13;;;17.94;36.37
35892;BME280;21993;42.672;23.296;2023-04-02T09:37:19;93953.75;;;17.80;36.88
35892;BME280;21993;42.672;23.296;2023-04-02T09:39:50;93944.91;;;17.72;37.30
35892;BME280;21993;42.672;23.296;2023-04-02T09:42:30;93950.06;;;17.81;36.97
35892;BME280;21993;42.672;23.296;2023-04-02T09:45:30;93937.06;;;18.06;36.39
35892;BME280;21993;42.672;23.296;2023-04-02T09:47:56;93939.53;;;18.07;36.15
35892;BME280;21993;42.672;23.296;2023-04-02T09:50:30;93935.66;;;18.03;36.25
35892;BME280;21993;42.672;23.296;2023-04-02T09:52:55;93930.34;;;18.03;36.65
35892;BME280;21993;42.672;23.296;2023-04-02T09:55:23;93924.78;;;17.91;37.78
35892;BME280;21993;42.672;23.296;2023-04-02T09:58:15;93926.88;;;18.09;36.40
35892;BME280;21993;42.672;23.296;2023-04-02T10:00:51;93921.38;;;18.11;36.77
35892;BME280;21993;42.672;23.296;2023-04-02T10:03:24;93928.09;;;18.07;35.70
35892;BME280;21993;42.672;23.296;2023-04-02T10:06:09;93930.34;;;18.03;35.97
35892;BME280;21993;42.672;23.296;2023-04-02T10:08:37;93933.66;;;18.18;35.53
35892;BME280;21993;42.672;23.296;2023-04-02T10:11:09;93926.88;;;18.16;35.69
35892;BME280;21993;42.672;23.296;2023-04-02T10:16:30;93913.19;;;18.12;34.88
35892;BME280;21993;42.672;23.296;2023-04-02T10:22:04;93912.56;;;18.10;36.60
35892;BME280;21993;42.672;23.296;2023-04-02T10:24:30;93908.31;;;18.36;37.13
35892;BME280;21993;42.672;23.296;2023-04-02T10:30:00;93905.47;;;18.37;37.97
35892;BME280;21993;42.672;23.296;2023-04-02T10:33:13;93908.94;;;18.44;38.01
35892;BME280;21993;42.672;23.296;2023-04-02T10:36:36;93909.56;;;18.53;37.89
35892;BME280;21993;42.672;23.296;2023-04-02T10:51:58;93910.22;;;18.68;36.69
35892;BME280;21993;42.672;23.296;2023-04-02T10:54:41;93915.31;;;18.50;36.96
35892;BME280;21993;42.672;23.296;2023-04-02T10:59:46;93907.31;;;18.50;38.65
35892;BME280;21993;42.672;23.296;2023-04-02T11:08:21;93899.13;;;18.91;37.42
35892;BME280;21993;42.672;23.296;2023-04-02T11:15:58;93900.97;;;18.97;36.91
35892;BME280;21993;42.672;23.296;2023-04-02T11:18:33;93900.38;;;18.62;37.21
35892;BME280;21993;42.672;23.296;2023-04-02T11:21:37;93900.78;;;18.52;36.79
35892;BME280;21993;42.672;23.296;2023-04-02T11:24:03;93909.59;;;18.66;37.12
35892;BME280;21993;42.672;23.296;2023-04-02T11:29:12;93898.94;;;18.60;36.47
35892;BME280;21993;42.672;23.296;2023-04-02T11:31:39;93899.13;;;18.38;37.40
35892;BME280;21993;42.672;23.296;2023-04-02T11:34:05;93893.84;;;18.51;37.39
35892;BME280;21993;42.672;23.296;2023-04-02T11:39:43;93886.88;;;18.64;37.76
35892;BME280;21993;42.672;23.296;2023-04-02T11:42:29;93887.28;;;18.74;36.66
35892;BME280;21993;42.672;23.296;2023-04-02T11:44:59;93881.75;;;18.89;36.00
35892;BME280;21993;42.672;23.296;2023-04-02T11:47:26;93888.31;;;18.79;36.04
35892;BME280;21993;42.672;23.296;2023-04-02T11:49:57;93880.13;;;18.61;36.92
35892;BME280;21993;42.672;23.296;2023-04-02T11:52:32;93874.81;;;18.74;35.95
35892;BME280;21993;42.672;23.296;2023-04-02T12:08:59;93881.47;;;19.23;36.14
35892;BME280;21993;42.672;23.296;2023-04-02T12:11:37;93876.31;;;19.41;35.03
35892;BME280;21993;42.672;23.296;2023-04-02T12:17:14;93885.38;;;19.34;35.69
35892;BME280;21993;42.672;23.296;2023-04-02T12:19:45;93878.22;;;19.28;35.37
35892;BME280;21993;42.672;23.296;2023-04-02T12:22:31;93885.16;;;19.35;35.14
35892;BME280;21993;42.672;23.296;2023-04-02T12:25:03;93878.16;;;19.41;34.86
35892;BME280;21993;42.672;23.296;2023-04-02T12:27:30;93870.81;;;19.30;35.74
35892;BME280;21993;42.672;23.296;2023-04-02T12:30:11;93871.66;;;19.30;34.71
35892;BME280;21993;42.672;23.296;2023-04-02T12:32:37;93870.03;;;19.16;35.39
35892;BME280;21993;42.672;23.296;2023-04-02T12:35:03;93867.19;;;19.18;35.05
35892;BME280;21993;42.672;23.296;2023-04-02T12:37:29;93864.09;;;19.21;35.17
35892;BME280;21993;42.672;23.296;2023-04-02T12:39:57;93867.09;;;19.44;34.67
35892;BME280;21993;42.672;23.296;2023-04-02T12:42:28;93869.00;;;19.24;34.55
35892;BME280;21993;42.672;23.296;2023-04-02T12:44:55;93860.78;;;19.38;34.45
35892;BME280;21993;42.672;23.296;2023-04-02T12:47:20;93858.91;;;19.46;34.42
35892;BME280;21993;42.672;23.296;2023-04-02T12:49:46;93861.75;;;19.51;34.00
35892;BME280;21993;42.672;23.296;2023-04-02T12:52:18;93860.16;;;19.43;34.20
35892;BME280;21993;42.672;23.296;2023-04-02T12:54:52;93842.69;;;19.60;33.89
35892;BME280;21993;42.672;23.296;2023-04-02T12:59:51;93846.97;;;19.68;33.57
35892;BME280;21993;42.672;23.296;2023-04-02T13:02:23;93850.06;;;19.58;33.45
35892;BME280;21993;42.672;23.296;2023-04-02T13:07:48;93845.97;;;19.49;33.47
35892;BME280;21993;42.672;23.296;2023-04-02T13:10:43;93847.06;;;19.35;33.49
35892;BME280;21993;42.672;23.296;2023-04-02T13:13:15;93842.09;;;19.52;33.98
35892;BME280;21993;42.672;23.296;2023-04-02T13:15:41;93842.94;;;19.39;33.47
35892;BME280;21993;42.672;23.296;2023-04-02T13:18:20;93837.16;;;19.55;33.37
35892;BME280;21993;42.672;23.296;2023-04-02T13:23:33;93840.63;;;19.56;33.28
35892;BME280;21993;42.672;23.296;2023-04-02T13:26:22;93846.78;;;19.63;33.14
35892;BME280;21993;42.672;23.296;2023-04-02T13:29:09;93844.13;;;19.63;32.94
35892;BME280;21993;42.672;23.296;2023-04-02T13:31:37;93838.56;;;19.64;33.04
35892;BME280;21993;42.672;23.296;2023-04-02T13:34:02;93834.91;;;19.52;33.72
35892;BME280;21993;42.672;23.296;2023-04-02T13:36:28;93842.69;;;19.54;33.02
35892;BME280;21993;42.672;23.296;2023-04-02T13:38:54;93833.13;;;19.39;33.32
35892;BME280;21993;42.672;23.296;2023-04-02T13:41:26;93836.22;;;19.36;33.54
35892;BME280;21993;42.672;23.296;2023-04-02T13:43:53;93834.38;;;19.37;33.13
35892;BME280;21993;42.672;23.296;2023-04-02T13:46:23;93834.75;;;19.40;33.11
35892;BME280;21993;42.672;23.296;2023-04-02T13:48:50;93837.19;;;19.42;32.95
35892;BME280;21993;42.672;23.296;2023-04-02T13:51:17;93842.94;;;19.46;32.41
35892;BME280;21993;42.672;23.296;2023-04-02T13:53:47;93832.50;;;19.44;32.32
35892;BME280;21993;42.672;23.296;2023-04-02T13:56:15;93840.06;;;19.40;32.46
35892;BME280;21993;42.672;23.296;2023-04-02T13:58:41;93831.75;;;19.24;32.33
35892;BME280;21993;42.672;23.296;2023-04-02T14:01:06;93829.28;;;19.22;32.54
35892;BME280;21993;42.672;23.296;2023-04-02T14:03:32;93834.44;;;19.17;32.31
35892;BME280;21993;42.672;23.296;2023-04-02T14:12:18;93832.16;;;19.27;32.43
35892;BME280;21993;42.672;23.296;2023-04-02T14:19:29;93841.50;;;18.78;33.00
35892;BME280;21993;42.672;23.296;2023-04-02T14:41:26;93817.28;;;19.00;32.61
35892;BME280;21993;42.672;23.296;2023-04-02T14:44:00;93819.13;;;18.99;32.71
35892;BME280;21993;42.672;23.296;2023-04-02T14:46:30;93820.22;;;18.78;32.82
35892;BME280;21993;42.672;23.296;2023-04-02T14:49:24;93823.88;;;18.64;33.00
35892;BME280;21993;42.672;23.296;2023-04-02T14:51:56;93825.94;;;18.49;33.14
35892;BME280;21993;42.672;23.296;2023-04-02T14:54:37;93823.09;;;18.37;33.18
35892;BME280;21993;42.672;23.296;2023-04-02T14:59:57;93832.28;;;18.28;33.59
35892;BME280;21993;42.672;23.296;2023-04-02T15:08:29;93836.38;;;18.31;33.56
35892;BME280;21993;42.672;23.296;2023-04-02T15:11:01;93841.47;;;18.32;33.30
35892;BME280;21993;42.672;23.296;2023-04-02T15:16:32;93839.44;;;18.34;33.48
35892;BME280;21993;42.672;23.296;2023-04-02T15:19:01;93844.34;;;18.37;33.17
35892;BME280;21993;42.672;23.296;2023-04-02T15:27:10;93835.16;;;18.33;33.26
35892;BME280;21993;42.672;23.296;2023-04-02T15:29:56;93842.72;;;18.43;33.47
35892;BME280;21993;42.672;23.296;2023-04-02T15:37:32;93841.50;;;18.25;32.91
35892;BME280;21993;42.672;23.296;2023-04-02T15:43:24;93844.94;;;18.13;33.45
35892;BME280;21993;42.672;23.296;2023-04-02T15:48:39;93842.28;;;18.19;33.15
35892;BME280;21993;42.672;23.296;2023-04-02T15:51:12;93847.41;;;18.21;32.74
35892;BME280;21993;42.672;23.296;2023-04-02T16:02:20;93855.94;;;17.83;32.08
35892;BME280;21993;42.672;23.296;2023-04-02T16:10:23;93864.28;;;17.80;32.41
35892;BME280;21993;42.672;23.296;2023-04-02T16:12:54;93872.28;;;17.87;32.61
35892;BME280;21993;42.672;23.296;2023-04-02T16:15:35;93860.41;;;17.89;32.49
35892;BME280;21993;42.672;23.296;2023-04-02T16:18:07;93862.66;;;17.79;33.16
35892;BME280;21993;42.672;23.296;2023-04-02T16:20:43;93863.66;;;17.71;33.29
35892;BME280;21993;42.672;23.296;2023-04-02T16:23:16;93865.94;;;17.75;32.74
35892;BME280;21993;42.672;23.296;2023-04-02T16:28:26;93869.56;;;17.73;33.00
35892;BME280;21993;42.672;23.296;2023-04-02T16:31:06;93882.81;;;17.67;33.15
35892;BME280;21993;42.672;23.296;2023-04-02T16:44:46;93888.50;;;17.57;33.55
35892;BME280;21993;42.672;23.296;2023-04-02T16:47:32;93888.06;;;17.54;34.46
35892;BME280;21993;42.672;23.296;2023-04-02T16:56:40;93895.97;;;17.40;35.47
35892;BME280;21993;42.672;23.296;2023-04-02T17:07:54;93904.63;;;17.21;35.42
35892;BME280;21993;42.672;23.296;2023-04-02T17:15:48;93911.72;;;17.07;35.51
35892;BME280;21993;42.672;23.296;2023-04-02T17:18:20;93911.88;;;16.99;35.46
35892;BME280;21993;42.672;23.296;2023-04-02T17:20:49;93914.75;;;17.04;36.10
35892;BME280;21993;42.672;23.296;2023-04-02T17:23:16;93918.75;;;16.94;36.19
35892;BME280;21993;42.672;23.296;2023-04-02T17:25:53;93921.47;;;17.00;35.74
35892;BME280;21993;42.672;23.296;2023-04-02T17:28:24;93923.03;;;16.95;36.00
35892;BME280;21993;42.672;23.296;2023-04-02T17:30:56;93929.50;;;16.85;36.14
35892;BME280;21993;42.672;23.296;2023-04-02T17:33:22;93930.88;;;16.81;36.16
35892;BME280;21993;42.672;23.296;2023-04-02T17:44:31;93939.13;;;16.65;36.99